Latest Coastal Weather Observations for Darwin Airport

IDD60701

Issued at 1:45 am CST Tuesday 25 November 2014 (issued every 10 minutes, with the page automatically refreshed every 10 minutes)

About coastal observations | Map of coastal stations | Coastal observations for NT | Marine services | Other Formats
Station Details ID: 014015 Name: DARWIN AIRPORT Lat: -12.42 Lon: 130.89 Height: 30.4 m
Data from the previous 72 hours. | See also: Recent months at Darwin Airport
Date/Time
CST
Temp

°C
Wind Pressure Rain
since 9am
mm
Weather Cloud Vis
km
Sea
Height
m
Swell
Dir
 
Speed
knots
Gust
knots
hPa Trend Height
m
Period
s
Dir
25/01:30am 26.1 ENE 7 8 1008.1 - 0.0 - - 10 - - - -
25/01:00am 26.3 NE 8 11 1008.4 - 0.0 - - 10 - - - -
25/12:30am 27.0 SE 5 9 1008.3 - 0.0 - - 10 - - - -
25/12:00am 26.9 CALM 0 0 1008.4 F 0.0 Haze Partly cloudy 20 - - - -
 
Date/Time
CST
Temp

°C
Wind Pressure Rain
since 9am
mm
Weather Cloud Vis
km
Sea
Height
m
Swell
Dir
 
Speed
knots
Gust
knots
hPa Trend Height
m
Period
s
Dir
24/11:30pm 26.9 S 2 4 1009.0 - 0.0 - - 10 - - - -
24/11:00pm 26.7 SE 5 5 1009.5 - 0.0 - - 10 - - - -
24/10:30pm 26.7 SSE 9 13 1010.0 - 0.0 - - 10 - - - -
24/10:00pm 26.8 SE 9 11 1009.7 - 0.0 - Mostly clear 10 - - - -
24/09:30pm 27.0 S 6 8 1009.2 - 0.0 - Partly cloudy 10 - - - -
24/09:00pm 26.6 SSW 9 12 1008.6 F 0.0 Rain Cloudy 7 - - - -
24/08:51pm 26.5 SSW 13 18 1009.3 - 0.0 Showers Mostly clear 7 - - - -
24/08:30pm 26.2 S 10 14 1009.9 - 0.0 Showers Mostly clear 10 - - - -
24/08:00pm 26.1 SSE 14 19 1009.9 - 0.0 - Mostly clear 8 - - - -
24/07:30pm 27.5 SSE 13 17 1010.1 - 0.0 - Mostly clear 8 - - - -
24/07:00pm 28.7 S 15 20 1008.8 - 0.0 Showers Mostly clear 5 - - - -
24/06:57pm 29.3 S 16 20 1008.9 - 0.0 Showers Mostly clear 5 - - - -
24/06:30pm 31.0 WNW 13 16 1007.8 - 0.0 - Mostly clear 10 - - - -
24/06:00pm 31.5 NW 12 15 1007.1 R 0.0 Distant precip. Mostly cloudy 30 - - - -
24/05:30pm 32.3 WNW 12 15 1006.8 - 0.0 - Mostly clear 10 - - - -
24/05:00pm 32.6 N 10 14 1006.3 - 0.0 - Mostly clear 10 - - - -
24/04:30pm 33.1 NNW 10 13 1006.6 - 0.0 - Mostly clear 10 - - - -
24/04:00pm 33.3 NNW 11 14 1006.3 - 0.0 - Mostly clear 10 - - - -
24/03:30pm 33.2 NNW 13 15 1006.3 - 0.0 - Mostly clear 10 - - - -
24/03:00pm 32.7 NNW 12 15 1006.7 F 0.0 Distant precip. Partly cloudy 30 - - - -
24/02:30pm 33.7 N 13 17 1007.2 - 0.0 - Mostly clear 10 - - - -
24/02:00pm 34.0 NNW 11 15 1007.6 - 0.0 - Mostly clear 10 - - - -
24/01:30pm 33.0 N 9 12 1008.6 - 0.0 - Mostly clear 10 - - - -
24/01:00pm 33.4 NW 9 13 1009.4 - 0.0 - Mostly clear 10 - - - -
24/12:30pm 33.3 W 10 14 1010.0 - 0.0 - Mostly clear 10 - - - -
24/12:00pm 32.6 NW 7 12 1010.2 R 0.0 Fine Partly cloudy 30 - - - -
24/11:30am 31.8 NW 5 9 1010.8 - 0.0 - Partly cloudy 10 - - - -
24/11:00am 31.5 NW 6 10 1011.0 - 0.0 - Partly cloudy 10 - - - -
24/10:30am 32.7 WNW 5 7 1011.2 - 0.0 - Mostly clear 10 - - - -
24/10:00am 31.1 NW 4 10 1011.2 - 0.0 - Mostly clear 10 - - - -
24/09:30am 31.5 W 4 7 1011.4 - 0.0 - Mostly clear 10 - - - -
24/09:00am 30.1 WNW 5 7 1011.0 F 0.0 Fine Partly cloudy 30 - - - -
24/08:30am 30.3 NNW 2 5 1011.2 - 0.0 - Partly cloudy 10 - - - -
24/08:00am 29.6 ENE 5 7 1011.2 - 0.0 - Mostly clear 10 - - - -
24/07:30am 28.7 ENE 4 6 1010.8 - 0.0 - Mostly clear 10 - - - -
24/07:00am 27.3 E 1 3 1010.7 - 0.0 - Mostly clear 10 - - - -
24/06:30am 25.9 NE 4 5 1010.1 - 0.0 - Mostly clear 10 - - - -
24/06:00am 25.7 ENE 5 6 1009.5 F 0.0 Fine Partly cloudy 30 - - - -
24/05:30am 25.8 NNE 5 6 1009.7 - 0.0 - Mostly clear 10 - - - -
24/05:00am 26.0 N 5 6 1009.6 - 0.0 - - 10 - - - -
24/04:30am 26.0 N 6 7 1009.5 - 0.0 - Mostly clear 10 - - - -
24/04:00am 25.7 N 6 6 1009.5 - 0.0 - - 10 - - - -
24/03:30am 26.3 N 6 7 1009.5 - 0.0 - - 10 - - - -
24/03:00am 26.5 NNE 7 8 1009.2 R 0.0 Fine Mostly clear 30 - - - -
24/02:30am 26.8 N 6 8 1009.6 - 0.0 - - 10 - - - -
24/02:00am 27.7 N 5 6 1009.6 - 0.0 - - 10 - - - -
24/01:30am 28.3 N 6 7 1010.1 - 0.0 - Partly cloudy 10 - - - -
24/01:00am 28.9 N 5 8 1010.2 - 0.0 - Mostly clear 10 - - - -
24/12:30am 29.3 NNW 5 7 1010.1 - 0.0 - Mostly clear 10 - - - -
24/12:00am 29.7 NNW 7 9 1009.8 R 0.0 Fine Partly cloudy 30 - - - -
 
Date/Time
CST
Temp

°C
Wind Pressure Rain
since 9am
mm
Weather Cloud Vis
km
Sea
Height
m
Swell
Dir
 
Speed
knots
Gust
knots
hPa Trend Height
m
Period
s
Dir
23/11:30pm 29.7 NNW 8 10 1010.0 - 0.0 - Mostly clear 10 - - - -
23/11:00pm 30.0 NNW 8 12 1010.0 - 0.0 - Mostly clear 10 - - - -
23/10:30pm 30.0 NNW 10 13 1009.9 - 0.0 - Mostly clear 10 - - - -
23/10:00pm 30.2 NNW 11 15 1009.5 - 0.0 - Mostly clear 10 - - - -
23/09:30pm 30.7 NNW 12 18 1009.1 - 0.0 - Mostly clear 10 - - - -
23/09:00pm 30.8 NNW 11 15 1008.6 R 0.0 Smoke Mostly clear 30 - - - -
23/08:30pm 31.1 NNW 10 13 1008.8 - 0.0 - - 10 - - - -
23/08:00pm 31.2 N 8 11 1008.1 - 0.0 - - 10 - - - -
23/07:30pm 31.6 NNE 9 13 1007.6 - 0.0 - - 10 - - - -
23/07:00pm 31.7 N 10 14 1007.2 - 0.0 - - 10 - - - -
23/06:30pm 32.7 NNE 13 17 1007.0 - 0.0 - - 10 - - - -
23/06:00pm 33.2 N 13 15 1006.5 F 0.0 Fine Partly cloudy 30 - - - -
23/05:30pm 34.0 N 14 19 1006.6 - 0.0 - Mostly clear 10 - - - -
23/05:00pm 34.5 N 14 18 1006.7 - 0.0 - Mostly clear 10 - - - -
23/04:30pm 34.1 N 14 17 1007.2 - 0.0 - Mostly clear 10 - - - -
23/04:00pm 33.7 N 13 17 1007.3 - 0.0 - Mostly clear 10 - - - -
23/03:30pm 34.3 N 14 17 1007.8 - 0.0 - Mostly clear 10 - - - -
23/03:00pm 33.3 N 15 18 1007.9 F 0.0 Fine Mostly clear 30 - - - -
23/02:30pm 33.3 NNW 13 16 1008.6 - 0.0 - Mostly clear 10 - - - -
23/02:00pm 33.3 NNW 12 15 1009.1 - 0.0 - Mostly clear 10 - - - -
23/01:30pm 33.1 NNW 9 13 1009.3 - 0.0 - Mostly clear 10 - - - -
23/01:00pm 32.4 NW 10 15 1009.9 - 0.0 - Partly cloudy 10 - - - -
23/12:30pm 32.2 NNW 9 12 1010.4 - 0.0 - Partly cloudy 10 - - - -
23/12:00pm 32.2 WNW 11 15 1010.6 F 0.0 Fine Partly cloudy 30 - - - -
23/11:30am 31.6 W 11 14 1011.2 - 0.0 - Partly cloudy 10 - - - -
23/11:00am 33.2 N 8 12 1011.6 - 0.0 - Partly cloudy 10 - - - -
23/10:30am 32.3 N 6 9 1011.8 - 0.0 - Partly cloudy 10 - - - -
23/10:00am 31.7 NNE 6 10 1012.0 - 0.0 - Partly cloudy 10 - - - -
23/09:30am 31.4 NE 7 10 1012.1 - 0.0 - Mostly clear 10 - - - -
23/09:00am 31.0 NNE 9 11 1011.8 F 0.0 Fine Mostly cloudy 30 - - - -
23/08:30am 30.6 NE 8 11 1011.9 - 0.0 - Mostly clear 10 - - - -
23/08:00am 29.9 NE 8 11 1012.0 - 0.0 - Mostly clear 10 - - - -
23/07:30am 28.7 NE 5 6 1011.7 - 0.0 - Mostly clear 10 - - - -
23/07:00am 27.4 ENE 5 6 1011.4 - 0.0 - Mostly clear 10 - - - -
23/06:30am 26.3 NE 5 7 1011.0 - 0.0 - Mostly clear 10 - - - -
23/06:00am 26.0 ENE 5 6 1010.4 R 0.0 Fine Partly cloudy 30 - - - -
23/05:30am 25.9 ENE 6 7 1010.3 - 0.0 - - 10 - - - -
23/05:00am 26.0 ENE 5 6 1010.1 - 0.0 - - 10 - - - -
23/04:30am 26.3 NE 4 5 1010.0 - 0.0 - - 10 - - - -
23/04:00am 26.8 NE 4 5 1009.9 - 0.0 - Mostly clear 10 - - - -
23/03:30am 26.7 NE 3 4 1009.7 - 0.0 - Mostly clear 10 - - - -
23/03:00am 26.8 NNE 5 5 1009.5 F 0.0 Fine Mostly clear 30 - - - -
23/02:30am 27.2 NW 3 4 1010.0 - 0.0 - Mostly clear 10 - - - -
23/02:00am 28.0 NNW 4 5 1010.0 - 0.0 - Mostly clear 10 - - - -
23/01:30am 28.8 NNW 5 6 1010.3 - 0.0 - Mostly clear 10 - - - -
23/01:00am 29.0 NNW 7 9 1010.6 - 0.0 - Mostly clear 10 - - - -
23/12:30am 29.1 NNW 7 9 1010.9 - 0.0 - Mostly clear 10 - - - -
23/12:00am 29.4 NNW 9 12 1010.6 R 0.0 Fine Partly cloudy 30 - - - -
 
Date/Time
CST
Temp

°C
Wind Pressure Rain
since 9am
mm
Weather Cloud Vis
km
Sea
Height
m
Swell
Dir
 
Speed
knots
Gust
knots
hPa Trend Height
m
Period
s
Dir
22/11:30pm 29.7 N 10 14 1011.0 - 0.0 - Mostly clear 10 - - - -
22/11:00pm 29.8 NW 12 15 1010.8 - 0.0 - Partly cloudy 10 - - - -
22/10:30pm 30.0 NW 13 17 1010.6 - 0.0 - Mostly clear 10 - - - -
22/10:00pm 30.2 NW 15 18 1010.5 - 0.0 - Mostly clear 10 - - - -
22/09:30pm 30.4 NNW 13 17 1010.2 - 0.0 - Mostly clear 10 - - - -
22/09:00pm 30.4 N 13 16 1009.6 S 0.0 Fine Partly cloudy 30 - - - -
22/08:30pm 30.2 NE 8 9 1009.7 - 0.0 - - 10 - - - -
22/08:00pm 31.1 NNE 7 8 1009.7 - 0.0 - - 10 - - - -
22/07:30pm 31.5 N 6 9 1009.3 - 0.0 - - 10 - - - -
22/07:00pm 31.8 WNW 5 7 1009.1 - 0.0 - Partly cloudy 10 - - - -
22/06:30pm 32.1 NNW 7 9 1008.5 - 0.0 - - 10 - - - -
22/06:00pm 32.7 NNW 8 10 1007.8 R 0.0 Fine Partly cloudy 30 - - - -
22/05:30pm 33.3 NNW 9 12 1007.9 - 0.0 - - 10 - - - -
22/05:00pm 33.5 N 10 13 1007.5 - 0.0 - Mostly clear 10 - - - -
22/04:30pm 32.6 NNE 9 11 1007.3 - 0.0 - Mostly clear 10 - - - -
22/04:15pm 31.5 NNE 11 16 1007.6 - 0.0 - Mostly clear 10 - - - -
22/04:00pm 30.6 ENE 17 24 1008.0 - 0.0 Thunderstorm Mostly clear 8 - - - -
22/03:57pm 31.0 ENE 20 24 1007.9 - 0.0 Thunderstorm Mostly clear 6 - - - -
22/03:49pm 34.4 N 13 16 1008.3 - 0.0 Thunderstorm Mostly clear 10 - - - -
22/03:30pm 34.2 NNW 13 16 1008.1 - 0.0 Thunder Mostly clear 10 - - - -
22/03:00pm 34.3 NNW 13 17 1007.9 F 0.0 Distant precip. Mostly clear 30 - - - -
22/02:30pm 33.8 N 13 17 1009.0 - 0.0 - Mostly clear 10 - - - -
22/02:00pm 34.2 N 13 17 1009.5 - 0.0 - Mostly clear 10 - - - -
22/01:30pm 33.8 NNW 11 15 1009.9 - 0.0 - Mostly clear 10 - - - -
22/01:00pm 32.6 N 10 14 1010.3 - 0.0 - Partly cloudy 10 - - - -
22/12:30pm 31.6 N 11 14 1011.0 - 0.0 - Partly cloudy 10 - - - -
22/12:00pm 31.5 NNW 11 14 1011.0 S 0.0 Fine Partly cloudy 30 - - - -
22/11:30am 31.4 WNW 11 13 1011.7 - 0.0 - Partly cloudy 10 - - - -
22/11:00am 32.2 NW 11 14 1012.0 - 0.0 - Partly cloudy 10 - - - -
22/10:30am 32.3 NNW 5 7 1012.2 - 0.0 - Partly cloudy 10 - - - -
22/10:00am 31.5 ESE 7 8 1012.4 - 0.0 - Partly cloudy 10 - - - -
22/09:30am 31.2 NNE 5 6 1012.5 - 0.0 - Partly cloudy 10 - - - -
22/09:00am 30.4 ENE 5 7 1012.0 R 0.0 Fine Mostly cloudy 30 - - - -
22/08:30am 30.8 ENE 5 8 1012.1 - 0.0 - Mostly clear 10 - - - -
22/08:00am 29.9 NE 7 8 1011.8 - 0.0 - Mostly clear 10 - - - -
22/07:30am 28.8 ENE 7 9 1011.6 - 0.0 - Mostly clear 10 - - - -
22/07:00am 27.3 ENE 6 7 1011.1 - 0.0 - Mostly clear 10 - - - -
22/06:30am 26.6 E 5 6 1010.5 - 0.0 - Mostly clear 10 - - - -
22/06:00am 26.1 E 4 5 1009.8 R 0.0 Fine Partly cloudy 30 - - - -
22/05:30am 26.4 CALM 0 0 1009.9 - 0.0 - Mostly clear 10 - - - -
22/05:00am 26.7 N 4 5 1009.8 - 0.0 - Mostly clear 10 - - - -
22/04:30am 27.1 NNW 4 4 1009.4 - 0.0 - Mostly clear 10 - - - -
22/04:00am 28.3 WNW 5 7 1009.2 - 0.0 - Mostly clear 10 - - - -
22/03:30am 28.5 NW 7 9 1008.9 - 0.0 - Mostly clear 10 - - - -
22/03:00am 28.2 NW 6 8 1008.6 F 0.0 Fine Mostly clear 30 - - - -
22/02:30am 28.1 NNW 6 8 1009.0 - 0.0 - Mostly clear 10 - - - -
22/02:00am 28.5 NNW 6 8 1009.1 - 0.0 - Mostly clear 10 - - - -

Other Formats:

Comma delimited format used in spreadsheet applications
http://www.bom.gov.au/fwo/IDD60701/IDD60701.94120.axf

JavaScript Object Notation format (JSON) in row-major order
http://www.bom.gov.au/fwo/IDD60701/IDD60701.94120.json